Time;durP1;ratioP1;P1;durP2;ratioP2;P2;SDS_P1;SDS_P2;PMS_P1;PMS_P2;Temp;Humidity;BMP_temperature;BMP_pressure;BME280_temperature;BME280_humidity;BME280_pressure;Samples;Min_cycle;Max_cycle;Signal;HPM_P1;HPM_P2
2023/10/14 00:01:17;;;;;;;0.50;0.50;;;12.70;99.90;;;;;;5108178;27;20405;-75
2023/10/14 00:03:45;;;;;;;0.25;0.25;;;12.60;99.90;;;;;;5105232;28;20063;-75
2023/10/14 00:06:15;;;;;;;0.20;0.20;;;12.60;99.90;;;;;;5107460;28;20496;-75
2023/10/14 00:08:48;;;;;;;0.30;0.30;;;12.50;99.90;;;;;;5108707;27;21624;-75
2023/10/14 00:11:18;;;;;;;0.40;0.40;;;;;;;;;;5114949;27;20050;-75
2023/10/14 00:13:52;;;;;;;0.30;0.30;;;12.40;99.90;;;;;;5107935;28;20047;-75
2023/10/14 00:18:56;;;;;;;0.30;0.30;;;12.40;99.90;;;;;;5112140;27;20121;-75
2023/10/14 00:21:25;;;;;;;0.30;0.30;;;12.30;99.90;;;;;;5113131;27;20048;-75
2023/10/14 00:24:03;;;;;;;0.30;0.30;;;12.30;99.90;;;;;;5107710;28;20497;-75
2023/10/14 00:26:32;;;;;;;0.30;0.30;;;12.20;99.90;;;;;;5103427;28;20043;-75
2023/10/14 00:29:32;;;;;;;0.35;0.35;;;12.20;99.90;;;;;;5106928;28;20132;-75
2023/10/14 00:31:52;;;;;;;0.20;0.20;;;12.20;99.90;;;;;;5110104;28;20043;-75
2023/10/14 00:34:22;;;;;;;0.30;0.30;;;12.10;99.90;;;;;;5107832;28;20453;-75
2023/10/14 00:36:53;;;;;;;0.30;0.30;;;12.00;99.90;;;;;;5107983;28;20047;-75
2023/10/14 00:39:28;;;;;;;0.30;0.30;;;11.90;99.90;;;;;;5113662;27;20047;-75
2023/10/14 00:41:56;;;;;;;0.30;0.30;;;11.80;99.90;;;;;;5114668;27;20063;-74
2023/10/14 00:44:26;;;;;;;0.30;0.30;;;11.80;99.90;;;;;;5065846;28;20049;-74
2023/10/14 00:46:53;;;;;;;0.30;0.30;;;11.80;99.90;;;;;;5070946;28;20071;-75
2023/10/14 00:49:34;;;;;;;0.30;0.30;;;11.70;99.90;;;;;;5073509;28;20517;-74
2023/10/14 00:52:10;;;;;;;0.93;0.90;;;11.70;99.90;;;;;;5075389;28;20044;-75
2023/10/14 00:57:20;;;;;;;0.45;0.45;;;11.60;99.90;;;;;;5075461;28;20055;-74
2023/10/14 00:59:50;;;;;;;0.82;0.82;;;11.50;99.90;;;;;;5068055;28;20050;-74
2023/10/14 01:02:29;;;;;;;0.40;0.40;;;11.40;99.90;;;;;;5064471;28;20040;-74
2023/10/14 01:04:55;;;;;;;0.50;0.50;;;11.30;99.90;;;;;;5064413;28;20123;-74
2023/10/14 01:07:23;;;;;;;0.30;0.30;;;11.30;99.90;;;;;;5067364;28;20056;-74
2023/10/14 01:09:52;;;;;;;0.30;0.30;;;11.20;99.90;;;;;;5073662;28;20063;-74
2023/10/14 01:15:23;;;;;;;1.38;0.68;;;11.10;99.90;;;;;;5049647;28;21087;-74
2023/10/14 01:17:52;;;;;;;0.40;0.40;;;11.10;99.90;;;;;;5067518;28;20095;-74
2023/10/14 01:20:26;;;;;;;0.40;0.40;;;11.10;99.90;;;;;;5071754;28;20052;-74
2023/10/14 01:22:57;;;;;;;0.40;0.40;;;11.00;99.90;;;;;;5072503;28;20044;-74
2023/10/14 01:25:31;;;;;;;0.40;0.40;;;10.90;99.90;;;;;;5075027;28;20048;-74
2023/10/14 01:28:06;;;;;;;0.85;0.63;;;10.90;99.90;;;;;;5098720;28;20322;-74
2023/10/14 01:30:38;;;;;;;0.30;0.30;;;10.70;99.90;;;;;;5064805;28;20052;-74
2023/10/14 01:33:12;;;;;;;0.63;0.63;;;10.70;99.90;;;;;;5063543;28;20484;-74
2023/10/14 01:35:42;;;;;;;0.30;0.30;;;10.60;99.90;;;;;;5075900;28;20048;-74
2023/10/14 01:38:08;;;;;;;0.30;0.30;;;10.60;99.90;;;;;;5061549;28;20390;-74
2023/10/14 01:40:40;;;;;;;0.35;0.35;;;10.50;99.90;;;;;;5071258;28;20067;-74
2023/10/14 01:43:06;;;;;;;0.40;0.40;;;10.40;99.90;;;;;;5088616;28;20056;-74
2023/10/14 01:45:40;;;;;;;0.40;0.40;;;10.60;99.90;;;;;;5101855;28;20052;-74
2023/10/14 01:50:45;;;;;;;0.40;0.40;;;10.50;99.90;;;;;;5112720;27;20059;-73
2023/10/14 01:53:12;;;;;;;0.30;0.30;;;10.30;99.90;;;;;;5111039;27;20039;-74
2023/10/14 01:55:42;;;;;;;0.30;0.30;;;10.40;99.90;;;;;;5113834;27;20070;-74
2023/10/14 01:58:10;;;;;;;0.30;0.30;;;10.40;99.90;;;;;;5113548;27;20051;-74
2023/10/14 02:00:39;;;;;;;0.40;0.40;;;10.40;99.90;;;;;;5107898;27;20056;-73
2023/10/14 02:03:07;;;;;;;0.60;0.60;;;10.30;99.90;;;;;;5103312;28;20039;-74
2023/10/14 02:05:37;;;;;;;0.40;0.40;;;10.40;99.90;;;;;;5106712;28;20523;-74
2023/10/14 02:08:04;;;;;;;1.27;1.17;;;10.40;99.90;;;;;;5099974;27;20170;-73
2023/10/14 02:10:35;;;;;;;1.55;0.70;;;10.30;99.90;;;;;;5115793;27;20039;-73
2023/10/14 02:13:01;;;;;;;0.30;0.30;;;10.70;99.90;;;;;;5112130;27;20081;-73
2023/10/14 02:15:27;;;;;;;0.30;0.30;;;10.40;99.90;;;;;;5109843;27;20063;-73
2023/10/14 02:17:52;;;;;;;0.40;0.40;;;10.40;99.90;;;;;;5107527;28;20063;-73
2023/10/14 02:20:27;;;;;;;0.30;0.30;;;10.30;99.90;;;;;;5110642;27;20083;-73
2023/10/14 02:22:57;;;;;;;0.40;0.40;;;10.20;99.90;;;;;;5114364;27;20039;-73
2023/10/14 02:25:27;;;;;;;0.40;0.40;;;10.20;99.90;;;;;;5112327;27;20052;-73
2023/10/14 02:27:54;;;;;;;0.40;0.40;;;10.20;99.90;;;;;;5112583;27;20050;-73
2023/10/14 02:30:20;;;;;;;0.40;0.40;;;10.20;99.90;;;;;;5100616;27;20056;-73
2023/10/14 02:32:48;;;;;;;0.43;0.43;;;10.10;99.90;;;;;;5107403;28;20052;-73
2023/10/14 02:35:15;;;;;;;0.40;0.40;;;10.20;99.90;;;;;;5105617;28;20122;-73
2023/10/14 02:37:41;;;;;;;0.32;0.32;;;10.10;99.90;;;;;;5109803;28;20043;-73
2023/10/14 02:40:23;;;;;;;0.40;0.40;;;10.00;99.90;;;;;;5114875;27;20035;-73
2023/10/14 02:42:51;;;;;;;0.50;0.50;;;10.00;99.90;;;;;;5105483;28;20502;-74
2023/10/14 02:45:16;;;;;;;0.40;0.40;;;10.10;99.90;;;;;;5110145;28;20102;-74
2023/10/14 02:47:43;;;;;;;0.40;0.40;;;10.00;99.90;;;;;;5109393;27;20087;-74
2023/10/14 02:50:11;;;;;;;0.40;0.40;;;10.20;99.90;;;;;;5094800;28;20048;-73
2023/10/14 02:52:39;;;;;;;0.50;0.50;;;10.00;99.90;;;;;;5115564;27;20054;-74
2023/10/14 02:55:25;;;;;;;0.40;0.40;;;10.10;99.90;;;;;;5113467;27;20698;-74
2023/10/14 02:57:51;;;;;;;0.95;0.95;;;10.00;99.90;;;;;;5113436;27;20438;-74
2023/10/14 03:00:32;;;;;;;0.30;0.30;;;10.00;99.90;;;;;;5108809;27;20513;-74
2023/10/14 03:03:12;;;;;;;0.40;0.40;;;10.00;99.90;;;;;;5108584;28;20123;-74
2023/10/14 03:05:53;;;;;;;0.40;0.40;;;10.10;99.90;;;;;;5105351;28;20118;-74
2023/10/14 03:08:20;;;;;;;0.40;0.40;;;9.90;99.90;;;;;;5106678;28;20050;-74
2023/10/14 03:10:46;;;;;;;0.30;0.30;;;9.90;99.90;;;;;;5112984;27;20462;-74
2023/10/14 03:13:12;;;;;;;;;;;9.80;99.90;;;;;;5110740;27;20130;-74
2023/10/14 03:15:39;;;;;;;0.40;0.40;;;9.80;99.90;;;;;;5115774;27;20018;-74
2023/10/14 03:18:06;;;;;;;0.85;0.85;;;10.00;99.90;;;;;;5113048;27;20405;-74
2023/10/14 03:20:34;;;;;;;0.40;0.40;;;9.80;99.90;;;;;;5107516;28;20852;-74
2023/10/14 03:23:10;;;;;;;0.40;0.40;;;9.80;99.90;;;;;;5105745;28;20054;-74
2023/10/14 03:25:36;;;;;;;0.38;0.38;;;9.80;99.90;;;;;;5104351;28;20104;-74
2023/10/14 03:30:37;;;;;;;0.50;0.50;;;9.80;99.90;;;;;;5111504;27;20119;-73
2023/10/14 03:33:11;;;;;;;0.80;0.80;;;9.70;99.90;;;;;;5112109;27;20455;-74
2023/10/14 03:35:38;;;;;;;0.40;0.40;;;9.70;99.90;;;;;;5110207;27;20043;-73
2023/10/14 03:41:10;;;;;;;0.30;0.30;;;9.70;99.90;;;;;;5083692;28;20652;-73
2023/10/14 03:48:57;;;;;;;0.43;0.43;;;9.80;99.90;;;;;;5106340;27;20059;-74
2023/10/14 03:51:24;;;;;;;0.63;0.63;;;9.70;99.90;;;;;;5109839;27;20047;-74
2023/10/14 03:54:09;;;;;;;0.40;0.40;;;9.70;99.90;;;;;;5107834;27;20055;-74
2023/10/14 03:56:36;;;;;;;0.30;0.30;;;9.80;99.90;;;;;;5113864;27;20040;-74
2023/10/14 03:59:03;;;;;;;0.40;0.40;;;9.70;99.90;;;;;;5104190;27;20490;-74
2023/10/14 04:04:24;;;;;;;0.53;0.53;;;9.80;99.90;;;;;;5104001;28;20122;-74
2023/10/14 04:06:55;;;;;;;3.13;2.90;;;10.00;99.90;;;;;;5099426;28;20048;-74
2023/10/14 04:09:24;;;;;;;0.90;0.90;;;10.10;99.90;;;;;;5107502;27;20111;-74
2023/10/14 04:11:57;;;;;;;0.30;0.30;;;10.20;99.90;;;;;;5103816;27;20050;-74
2023/10/14 04:14:27;;;;;;;0.40;0.40;;;10.10;99.90;;;;;;5101736;28;20039;-74
2023/10/14 04:19:44;;;;;;;0.40;0.40;;;10.20;99.90;;;;;;5110599;28;20054;-74
2023/10/14 04:23:05;;;;;;;0.40;0.40;;;10.30;99.90;;;;;;5107700;28;20144;-74
2023/10/14 04:30:21;;;;;;;0.38;0.38;;;10.30;99.90;;;;;;5103388;28;20051;-74
2023/10/14 04:32:48;;;;;;;0.30;0.30;;;10.30;99.90;;;;;;5109143;28;20047;-74
2023/10/14 04:35:19;;;;;;;0.40;0.40;;;10.30;99.90;;;;;;5111251;28;20078;-74
2023/10/14 04:37:51;;;;;;;0.43;0.43;;;10.50;99.90;;;;;;5105243;28;20043;-74
2023/10/14 04:51:09;;;;;;;0.40;0.40;;;10.50;99.90;;;;;;5110142;28;20054;-74
2023/10/14 04:53:35;;;;;;;0.60;0.60;;;10.40;99.90;;;;;;5110596;28;20050;-74
2023/10/14 04:56:04;;;;;;;0.73;0.73;;;10.30;99.90;;;;;;5100897;28;20051;-74
2023/10/14 04:58:32;;;;;;;0.40;0.40;;;10.20;99.90;;;;;;5105352;28;20071;-74
2023/10/14 05:01:00;;;;;;;1.25;1.25;;;10.30;99.90;;;;;;5101765;28;20043;-74
2023/10/14 05:03:33;;;;;;;0.40;0.40;;;10.30;99.90;;;;;;5110442;28;20150;-74
2023/10/14 05:08:49;;;;;;;0.63;0.63;;;10.00;99.90;;;;;;5111613;28;20063;-74
2023/10/14 05:11:18;;;;;;;0.30;0.30;;;9.90;99.90;;;;;;5108802;28;20126;-74
2023/10/14 05:16:29;;;;;;;0.40;0.40;;;9.90;99.90;;;;;;5102956;28;20048;-74
2023/10/14 05:19:06;;;;;;;0.32;0.32;;;9.80;99.90;;;;;;5076903;28;20370;-74
2023/10/14 05:21:44;;;;;;;0.40;0.40;;;9.80;99.90;;;;;;5097539;28;20051;-73
2023/10/14 05:24:11;;;;;;;0.73;0.73;;;9.80;99.90;;;;;;5109186;27;20051;-74
2023/10/14 05:26:47;;;;;;;0.50;0.50;;;9.70;99.90;;;;;;5114307;27;20043;-74
2023/10/14 05:29:22;;;;;;;0.60;0.60;;;9.70;99.90;;;;;;5107285;27;20148;-74
2023/10/14 05:31:49;;;;;;;0.40;0.40;;;;;;;;;;5109327;27;20037;-73
2023/10/14 05:34:17;;;;;;;0.60;0.60;;;;;;;;;;5107699;27;20043;-73
2023/10/14 05:36:44;;;;;;;0.40;0.40;;;;;;;;;;5106720;27;20040;-74
2023/10/14 05:39:10;;;;;;;0.30;0.30;;;;;;;;;;5100274;27;20055;-73
2023/10/14 05:41:37;;;;;;;0.50;0.50;;;;;;;;;;5113809;27;20079;-73
2023/10/14 05:44:04;;;;;;;1.40;1.35;;;;;;;;;;5110182;27;20178;-73
2023/10/14 05:46:30;;;;;;;0.30;0.30;;;;;;;;;;5104481;27;20173;-73
2023/10/14 05:48:56;;;;;;;0.50;0.50;;;;;;;;;;5102974;28;20058;-73
2023/10/14 05:51:23;;;;;;;1.20;1.20;;;;;;;;;;5104543;27;20135;-73
2023/10/14 05:53:49;;;;;;;0.55;0.55;;;;;;;;;;5106900;27;20046;-73
2023/10/14 05:56:15;;;;;;;0.35;0.35;;;;;;;;;;5109927;27;20176;-74
2023/10/14 05:58:41;;;;;;;;;;;;;;;;;;5110144;27;20054;-73
2023/10/14 06:01:11;;;;;;;0.40;0.40;;;;;;;;;;5110426;27;19931;-74
2023/10/14 06:03:37;;;;;;;0.40;0.40;;;;;;;;;;5087161;28;20047;-74
2023/10/14 06:06:09;;;;;;;0.30;0.30;;;;;;;;;;5108060;28;20112;-74
2023/10/14 06:08:36;;;;;;;0.40;0.40;;;;;;;;;;5080433;28;20044;-74
2023/10/14 06:11:05;;;;;;;0.40;0.40;;;;;;;;;;5103945;28;20051;-74
2023/10/14 06:13:31;;;;;;;0.35;0.35;;;;;;;;;;5086659;28;20126;-74
2023/10/14 06:16:00;;;;;;;0.40;0.40;;;;;;;;;;5108771;27;20746;-73
2023/10/14 06:18:26;;;;;;;1.63;0.68;;;;;;;;;;5108241;27;20188;-74
2023/10/14 06:20:53;;;;;;;;;;;;;;;;;;5109234;28;20044;-74
2023/10/14 06:23:19;;;;;;;0.30;0.30;;;;;;;;;;5095875;27;19967;-74
2023/10/14 06:25:46;;;;;;;;;;;;;;;;;;5105806;28;20115;-73
2023/10/14 06:28:12;;;;;;;0.45;0.45;;;;;;;;;;5106635;28;19931;-73
2023/10/14 06:30:38;;;;;;;;;;;;;;;;;;5091971;28;20047;-73
2023/10/14 06:33:04;;;;;;;0.50;0.50;;;;;;;;;;5105134;27;19924;-74
2023/10/14 06:35:32;;;;;;;0.47;0.47;;;;;;;;;;5108531;28;20071;-74
2023/10/14 06:38:04;;;;;;;0.40;0.40;;;;;;;;;;5108240;27;20048;-73
2023/10/14 06:40:36;;;;;;;0.40;0.40;;;;;;;;;;5107503;27;20059;-73
2023/10/14 06:43:13;;;;;;;0.40;0.40;;;;;;;;;;5107596;27;20139;-74
2023/10/14 06:45:40;;;;;;;0.60;0.60;;;;;;;;;;5106921;27;20052;-73
2023/10/14 06:48:10;;;;;;;0.38;0.38;;;;;;;;;;5127024;27;20055;-73
2023/10/14 06:50:42;;;;;;;0.30;0.30;;;;;;;;;;5107825;28;20082;-73
2023/10/14 06:53:08;;;;;;;0.40;0.40;;;;;;;;;;5105983;27;20040;-77
2023/10/14 06:55:39;;;;;;;;;;;;;;;;;;5111519;27;20043;-73
2023/10/14 06:58:08;;;;;;;0.40;0.40;;;;;;;;;;5105857;27;20308;-73
2023/10/14 07:00:37;;;;;;;0.40;0.40;;;;;;;;;;5108227;28;20050;-74
2023/10/14 07:03:03;;;;;;;0.35;0.35;;;;;;;;;;5105806;28;20086;-73
2023/10/14 07:05:29;;;;;;;;;;;;;;;;;;5107512;27;20131;-73
2023/10/14 07:07:58;;;;;;;0.50;0.50;;;;;;;;;;5092391;28;19920;-73
2023/10/14 07:10:28;;;;;;;0.30;0.30;;;;;;;;;;5108762;27;20050;-74
2023/10/14 07:13:03;;;;;;;0.45;0.45;;;;;;;;;;5125226;27;20047;-73
2023/10/14 07:15:33;;;;;;;0.40;0.40;;;;;;;;;;5108259;27;20533;-73
2023/10/14 07:18:01;;;;;;;0.40;0.40;;;;;;;;;;5109421;27;20084;-72
2023/10/14 07:20:30;;;;;;;0.40;0.40;;;;;;;;;;5107760;28;20135;-73
2023/10/14 07:23:03;;;;;;;0.50;0.50;;;;;;;;;;5106983;28;20125;-74
2023/10/14 07:25:34;;;;;;;0.40;0.40;;;;;;;;;;5108342;27;20096;-73
2023/10/14 07:28:01;;;;;;;0.40;0.40;;;;;;;;;;5108364;28;20144;-73
2023/10/14 07:30:28;;;;;;;0.55;0.55;;;;;;;;;;5107747;28;20059;-74
2023/10/14 07:32:54;;;;;;;0.40;0.40;;;;;;;;;;5106303;28;20036;-73
2023/10/14 07:35:21;;;;;;;0.57;0.57;;;;;;;;;;5113483;27;20565;-73
2023/10/14 07:37:48;;;;;;;0.30;0.30;;;;;;;;;;5107474;28;20134;-72
2023/10/14 07:40:24;;;;;;;2.92;1.70;;;;;;;;;;5107027;28;20046;-73
2023/10/14 07:42:52;;;;;;;0.35;0.35;;;;;;;;;;5104189;27;20150;-73
2023/10/14 07:45:18;;;;;;;0.22;0.22;;;;;;;;;;5105730;28;20044;-72
2023/10/14 07:47:44;;;;;;;0.75;0.75;;;;;;;;;;5107981;28;20694;-72
2023/10/14 07:50:11;;;;;;;0.30;0.30;;;;;;;;;;5106675;28;20055;-73
2023/10/14 07:52:38;;;;;;;0.30;0.30;;;;;;;;;;5107123;28;20040;-73
2023/10/14 07:55:04;;;;;;;;;;;;;;;;;;5106549;28;20092;-73
2023/10/14 07:57:31;;;;;;;1.13;1.13;;;;;;;;;;5106361;28;19924;-73
2023/10/14 07:59:59;;;;;;;1.88;1.77;;;;;;;;;;5107174;28;20048;-73
2023/10/14 08:02:29;;;;;;;0.55;0.40;;;;;;;;;;5106519;27;20048;-73
2023/10/14 08:04:55;;;;;;;0.40;0.40;;;;;;;;;;5107050;28;20042;-73
2023/10/14 08:07:21;;;;;;;0.35;0.35;;;;;;;;;;5108370;28;20043;-73
2023/10/14 08:09:48;;;;;;;;;;;;;;;;;;5107637;27;20039;-73
2023/10/14 08:12:14;;;;;;;0.30;0.30;;;;;;;;;;5107594;28;20393;-72
2023/10/14 08:14:40;;;;;;;;;;;;;;;;;;5107108;28;20047;-72
2023/10/14 08:17:11;;;;;;;0.93;0.93;;;;;;;;;;5106666;28;19927;-72
2023/10/14 08:19:38;;;;;;;0.82;0.82;;;;;;;;;;5106232;28;20054;-73
2023/10/14 08:22:05;;;;;;;0.50;0.50;;;;;;;;;;5124058;27;20069;-73
2023/10/14 08:24:31;;;;;;;0.40;0.40;;;;;;;;;;5102696;28;20039;-72
2023/10/14 08:26:57;;;;;;;0.50;0.50;;;;;;;;;;5125697;27;20052;-73
2023/10/14 08:29:25;;;;;;;2.55;1.30;;;;;;;;;;5112292;28;20417;-72
2023/10/14 08:31:54;;;;;;;0.57;0.57;;;;;;;;;;5122022;27;20126;-72
2023/10/14 08:34:23;;;;;;;0.43;0.43;;;;;;;;;;5102573;28;20046;-73
2023/10/14 08:36:50;;;;;;;0.38;0.38;;;;;;;;;;5106412;28;20141;-73
2023/10/14 08:39:16;;;;;;;0.85;0.85;;;;;;;;;;5105916;28;20056;-73
2023/10/14 08:41:48;;;;;;;0.30;0.30;;;;;;;;;;5105319;28;20047;-73
2023/10/14 08:44:18;;;;;;;0.30;0.30;;;;;;;;;;5106771;28;20130;-73
2023/10/14 08:46:45;;;;;;;0.20;0.20;;;;;;;;;;5106222;28;20059;-73
2023/10/14 08:49:12;;;;;;;0.30;0.30;;;;;;;;;;5110354;28;20043;-72
2023/10/14 08:51:39;;;;;;;0.35;0.35;;;;;;;;;;5103377;28;20074;-73
2023/10/14 08:54:06;;;;;;;0.30;0.30;;;;;;;;;;5106861;28;20048;-73
2023/10/14 08:56:34;;;;;;;0.40;0.40;;;;;;;;;;5107055;28;20047;-74
2023/10/14 08:59:00;;;;;;;0.57;0.57;;;;;;;;;;5106027;28;20050;-73
2023/10/14 09:01:27;;;;;;;0.30;0.30;;;;;;;;;;5110894;28;20047;-73
2023/10/14 09:03:53;;;;;;;0.30;0.30;;;;;;;;;;5109944;27;20047;-73
2023/10/14 09:06:21;;;;;;;0.30;0.30;;;;;;;;;;5108753;27;20053;-73
2023/10/14 09:08:51;;;;;;;0.30;0.30;;;;;;;;;;5107921;27;20056;-73
2023/10/14 09:11:34;;;;;;;0.20;0.20;;;;;;;;;;5109408;27;20056;-73
2023/10/14 09:14:03;;;;;;;0.30;0.30;;;;;;;;;;5109256;28;20043;-72
2023/10/14 09:16:32;;;;;;;0.30;0.30;;;;;;;;;;5111742;27;20047;-73
2023/10/14 09:18:59;;;;;;;0.20;0.20;;;;;;;;;;5110976;27;20447;-73
2023/10/14 09:21:25;;;;;;;0.40;0.40;;;;;;;;;;5111465;28;20043;-74
2023/10/14 09:23:52;;;;;;;0.50;0.50;;;;;;;;;;5092254;28;20051;-75
2023/10/14 09:26:18;;;;;;;0.30;0.30;;;;;;;;;;5110963;28;20044;-74
2023/10/14 09:28:44;;;;;;;;;;;;;;;;;;5126699;27;20084;-74
2023/10/14 09:31:11;;;;;;;0.30;0.30;;;;;;;;;;5109065;28;19961;-74
2023/10/14 09:33:37;;;;;;;0.60;0.60;;;;;;;;;;5098823;27;20094;-74
2023/10/14 09:36:18;;;;;;;0.40;0.40;;;;;;;;;;5111653;28;20674;-73
2023/10/14 09:38:48;;;;;;;0.45;0.45;;;;;;;;;;5107298;28;20137;-74
2023/10/14 09:41:15;;;;;;;0.30;0.30;;;;;;;;;;5107153;28;20048;-75
2023/10/14 09:43:46;;;;;;;0.40;0.40;;;;;;;;;;5087545;28;20096;-73
2023/10/14 09:46:16;;;;;;;1.67;0.55;;;;;;;;;;5061446;28;20048;-74
2023/10/14 09:48:46;;;;;;;22.88;1.80;;;;;;;;;;5062423;28;20059;-74
2023/10/14 09:51:13;;;;;;;0.38;0.38;;;;;;;;;;5068659;28;20475;-74
2023/10/14 09:53:39;;;;;;;0.40;0.40;;;;;;;;;;5064779;28;20041;-74
2023/10/14 09:56:05;;;;;;;;;;;;;;;;;;5070235;28;20049;-74
2023/10/14 09:58:34;;;;;;;0.28;0.28;;;;;;;;;;5067029;28;19958;-74
2023/10/14 10:01:01;;;;;;;0.40;0.40;;;;;;;;;;5063670;28;20105;-75
2023/10/14 10:03:28;;;;;;;0.25;0.25;;;;;;;;;;5067535;28;20052;-75
2023/10/14 10:06:04;;;;;;;0.30;0.30;;;;;;;;;;5085953;28;20048;-75
2023/10/14 10:08:39;;;;;;;0.95;0.95;;;;;;;;;;5065461;28;20075;-75
2023/10/14 10:11:07;;;;;;;0.95;0.57;;;;;;;;;;5069840;28;20080;-75
2023/10/14 10:13:35;;;;;;;0.30;0.30;;;;;;;;;;5062627;28;20047;-74
2023/10/14 10:16:03;;;;;;;0.77;0.77;;;;;;;;;;5065092;28;20056;-74
2023/10/14 10:18:49;;;;;;;0.47;0.47;;;;;;;;;;5087500;28;20048;-74
2023/10/14 10:21:16;;;;;;;0.32;0.32;;;;;;;;;;5067684;28;20040;-73
2023/10/14 10:23:42;;;;;;;0.50;0.50;;;;;;;;;;5064994;28;20048;-74
2023/10/14 10:26:09;;;;;;;0.40;0.40;;;;;;;;;;5068449;28;20066;-73
2023/10/14 10:28:35;;;;;;;;;;;;;;;;;;5069813;28;20157;-73
2023/10/14 10:31:05;;;;;;;0.40;0.40;;;;;;;;;;5067316;28;20558;-73
2023/10/14 10:33:49;;;;;;;0.40;0.40;;;;;;;;;;5068793;28;20079;-74
2023/10/14 10:36:21;;;;;;;0.50;0.50;;;;;;;;;;5069666;28;20127;-74
2023/10/14 10:38:47;;;;;;;0.40;0.40;;;;;;;;;;5066566;28;20128;-74
2023/10/14 10:41:14;;;;;;;;;;;;;;;;;;5067289;28;20049;-74
2023/10/14 10:43:41;;;;;;;0.30;0.30;;;;;;;;;;5077462;28;19920;-74
2023/10/14 10:46:07;;;;;;;;;;;;;;;;;;5089466;28;20109;-73
2023/10/14 10:48:39;;;;;;;1.60;1.50;;;;;;;;;;5089549;28;19960;-74
2023/10/14 10:51:11;;;;;;;0.30;0.30;;;;;;;;;;5105447;27;20539;-73
2023/10/14 10:53:38;;;;;;;0.47;0.47;;;;;;;;;;5087934;28;20511;-74
2023/10/14 10:56:04;;;;;;;0.55;0.52;;;;;;;;;;5088749;28;20143;-74
2023/10/14 10:58:31;;;;;;;;;;;;;;;;;;5088649;28;20040;-73
2023/10/14 11:01:01;;;;;;;0.47;0.47;;;;;;;;;;5088529;28;19924;-74
2023/10/14 11:03:27;;;;;;;0.30;0.30;;;;;;;;;;5084855;28;20044;-75
2023/10/14 11:05:53;;;;;;;0.30;0.30;;;;;;;;;;5087477;28;20051;-73
2023/10/14 11:08:22;;;;;;;0.30;0.30;;;;;;;;;;5084785;28;20062;-73
2023/10/14 11:10:49;;;;;;;0.35;0.35;;;;;;;;;;5088169;28;20107;-74
2023/10/14 11:13:16;;;;;;;0.30;0.30;;;;;;;;;;5087929;28;20401;-73
2023/10/14 11:15:43;;;;;;;0.30;0.30;;;;;;;;;;5088675;28;20051;-73
2023/10/14 11:18:10;;;;;;;0.60;0.60;;;;;;;;;;5085980;28;20051;-74
2023/10/14 11:20:41;;;;;;;0.30;0.30;;;;;;;;;;5088428;28;20051;-73
2023/10/14 11:23:11;;;;;;;0.73;0.73;;;;;;;;;;5084501;28;20513;-74
2023/10/14 11:25:44;;;;;;;0.82;0.82;;;;;;;;;;5088657;28;20106;-73
2023/10/14 11:28:11;;;;;;;0.40;0.40;;;;;;;;;;5085744;28;20070;-73
2023/10/14 11:30:45;;;;;;;0.40;0.40;;;;;;;;;;5088095;28;20044;-73
2023/10/14 11:33:13;;;;;;;0.30;0.30;;;;;;;;;;5084404;28;20052;-73
2023/10/14 11:35:39;;;;;;;0.30;0.30;;;;;;;;;;5087250;28;20125;-74
2023/10/14 11:38:07;;;;;;;0.50;0.50;;;;;;;;;;5083942;28;20327;-73
2023/10/14 11:40:33;;;;;;;0.30;0.30;;;;;;;;;;5087640;28;20048;-74
2023/10/14 11:43:00;;;;;;;0.40;0.40;;;;;;;;;;5088961;28;20083;-73
2023/10/14 11:45:26;;;;;;;;;;;;;;;;;;5107485;27;20097;-73
2023/10/14 11:47:55;;;;;;;0.40;0.40;;;;;;;;;;5107518;28;19920;-73
2023/10/14 11:50:21;;;;;;;0.40;0.40;;;;;;;;;;5106014;27;20058;-73
2023/10/14 11:52:47;;;;;;;;;;;;;;;;;;5089724;28;20054;-73
2023/10/14 11:55:16;;;;;;;4.97;2.45;;;;;;;;;;5105560;28;19959;-73
2023/10/14 11:57:46;;;;;;;0.68;0.47;;;;;;;;;;5105961;28;20081;-73
2023/10/14 12:00:20;;;;;;;0.35;0.35;;;;;;;;;;5105611;28;20055;-73
2023/10/14 12:02:49;;;;;;;0.40;0.40;;;;;;;;;;5108311;28;20044;-72
2023/10/14 12:05:19;;;;;;;0.77;0.77;;;;;;;;;;5111781;27;20481;-73
2023/10/14 12:07:51;;;;;;;1.42;1.35;;;;;;;;;;5091039;28;20127;-73
2023/10/14 12:10:17;;;;;;;0.30;0.30;;;;;;;;;;5108460;27;20058;-73
2023/10/14 12:12:53;;;;;;;0.30;0.30;;;;;;;;;;5107936;28;20043;-74
2023/10/14 12:15:20;;;;;;;0.40;0.40;;;;;;;;;;5109344;28;20047;-73
2023/10/14 12:17:46;;;;;;;0.88;0.88;;;;;;;;;;5104492;28;20510;-73
2023/10/14 12:20:12;;;;;;;0.38;0.38;;;;;;;;;;5106325;28;20054;-73
2023/10/14 12:22:39;;;;;;;1.27;1.27;;;;;;;;;;5107282;28;20126;-74
2023/10/14 12:25:06;;;;;;;0.30;0.30;;;;;;;;;;5105953;28;20058;-73
2023/10/14 12:27:33;;;;;;;0.30;0.30;;;;;;;;;;5107229;28;20052;-73
2023/10/14 12:30:00;;;;;;;0.30;0.30;;;;;;;;;;5108014;28;20127;-74
2023/10/14 12:32:32;;;;;;;0.30;0.30;;;;;;;;;;5088042;28;20036;-73
2023/10/14 12:34:59;;;;;;;0.40;0.40;;;;;;;;;;5110024;28;20126;-73
2023/10/14 12:37:28;;;;;;;0.30;0.30;;;;;;;;;;5112557;27;20046;-74
2023/10/14 12:40:11;;;;;;;12.68;1.27;;;;;;;;;;5110906;27;20047;-74
2023/10/14 12:42:47;;;;;;;0.40;0.40;;;;;;;;;;5109519;27;20466;-73
2023/10/14 12:45:23;;;;;;;0.43;0.43;;;;;;;;;;5111535;27;20066;-73
2023/10/14 12:47:56;;;;;;;0.38;0.38;;;;;;;;;;5107861;27;20039;-73
2023/10/14 12:50:23;;;;;;;0.77;0.77;;;;;;;;;;5112696;27;20051;-72
2023/10/14 12:52:50;;;;;;;1.20;1.20;;;;;;;;;;5106254;27;20032;-74
2023/10/14 12:55:22;;;;;;;0.40;0.40;;;;;;;;;;5107882;28;20043;-73
2023/10/14 12:57:49;;;;;;;0.50;0.50;;;;;;;;;;5107096;28;20604;-72
2023/10/14 13:00:25;;;;;;;1.10;1.10;;;;;;;;;;5110010;28;20039;-73
2023/10/14 13:02:52;;;;;;;1.48;1.38;;;;;;;;;;5111275;27;20039;-72
2023/10/14 13:05:20;;;;;;;0.30;0.30;;;;;;;;;;5106483;27;20824;-73
2023/10/14 13:07:47;;;;;;;0.40;0.40;;;;;;;;;;5109758;28;20071;-72
2023/10/14 13:10:18;;;;;;;0.80;0.80;;;;;;;;;;5107120;27;20051;-72
2023/10/14 13:12:54;;;;;;;0.77;0.77;;;;;;;;;;5107642;27;20047;-73
2023/10/14 13:15:28;;;;;;;0.30;0.30;;;;;;;;;;5107331;27;20036;-72
2023/10/14 13:18:07;;;;;;;0.30;0.30;;;;;;;;;;5109526;27;20533;-72
2023/10/14 13:20:34;;;;;;;0.40;0.40;;;;;;;;;;5110436;27;20493;-73
2023/10/14 13:23:05;;;;;;;0.88;0.88;;;;;;;;;;5107287;28;20100;-73
2023/10/14 13:25:36;;;;;;;0.30;0.30;;;;;;;;;;5109417;27;20039;-73
2023/10/14 13:28:03;;;;;;;0.30;0.30;;;;;;;;;;5098634;28;20050;-73
2023/10/14 13:30:29;;;;;;;0.50;0.50;;;;;;;;;;5109339;28;20044;-73
2023/10/14 13:32:55;;;;;;;3.13;1.38;;;;;;;;;;5109073;27;20501;-73
2023/10/14 13:35:22;;;;;;;0.85;0.85;;;;;;;;;;5103794;28;20163;-73
2023/10/14 13:37:49;;;;;;;0.20;0.20;;;;;;;;;;5101032;28;20096;-74
2023/10/14 13:40:20;;;;;;;0.50;0.50;;;;;;;;;;5103671;27;20071;-73
2023/10/14 13:42:50;;;;;;;0.82;0.82;;;;;;;;;;5121971;27;20497;-72
2023/10/14 13:45:17;;;;;;;0.50;0.50;;;;;;;;;;5104246;27;20059;-73
2023/10/14 13:47:44;;;;;;;0.25;0.25;;;;;;;;;;5105432;27;20116;-73
2023/10/14 13:50:20;;;;;;;2.58;0.60;;;;;;;;;;5103870;28;20489;-73
2023/10/14 13:52:56;;;;;;;0.40;0.40;;;;;;;;;;5105236;27;20146;-74
2023/10/14 13:55:22;;;;;;;0.95;0.88;;;;;;;;;;5089993;28;20047;-73
2023/10/14 13:57:48;;;;;;;1.02;1.02;;;;;;;;;;5102334;27;20145;-73
2023/10/14 14:00:18;;;;;;;;;;;;;;;;;;5105436;28;20066;-73
2023/10/14 14:02:46;;;;;;;0.63;0.63;;;;;;;;;;5105878;28;19924;-73
2023/10/14 14:05:12;;;;;;;0.80;0.80;;;;;;;;;;5122939;27;20079;-72
2023/10/14 14:07:39;;;;;;;;;;;;;;;;;;5104818;27;20051;-73
2023/10/14 14:10:08;;;;;;;0.38;0.38;;;;;;;;;;5104347;28;20324;-73
2023/10/14 14:12:35;;;;;;;0.40;0.40;;;;;;;;;;5105267;28;20043;-73
2023/10/14 14:15:01;;;;;;;0.55;0.55;;;;;;;;;;5105333;28;20085;-73
2023/10/14 14:17:27;;;;;;;;;;;;;;;;;;5102980;27;20139;-73
2023/10/14 14:19:53;;;;;;;0.30;0.30;;;;;;;;;;5103887;28;19923;-74
2023/10/14 14:22:19;;;;;;;;;;;;;;;;;;5104971;28;20040;-73
2023/10/14 14:24:45;;;;;;;0.70;0.70;;;;;;;;;;5104455;28;19976;-73
2023/10/14 14:27:12;;;;;;;0.28;0.28;;;;;;;;;;5104249;28;20047;-73
2023/10/14 14:29:38;;;;;;;0.25;0.25;;;;;;;;;;5104084;27;20067;-73
2023/10/14 14:32:05;;;;;;;0.30;0.30;;;;;;;;;;5103009;27;20043;-74
2023/10/14 14:34:32;;;;;;;0.40;0.40;;;;;;;;;;5104748;27;20051;-74
2023/10/14 14:36:59;;;;;;;0.60;0.60;;;;;;;;;;5104316;28;20052;-73
2023/10/14 14:39:25;;;;;;;0.43;0.43;;;;;;;;;;5086781;28;20055;-73
2023/10/14 14:41:54;;;;;;;0.63;0.63;;;;;;;;;;5104350;27;20077;-73
2023/10/14 14:44:21;;;;;;;0.40;0.40;;;;;;;;;;5102276;28;20504;-73
2023/10/14 14:46:47;;;;;;;;;;;;;;;;;;5102286;28;20081;-73
2023/10/14 14:49:13;;;;;;;0.30;0.30;;;;;;;;;;5102814;28;20341;-74
2023/10/14 14:51:40;;;;;;;;;;;;;;;;;;5104850;28;20139;-73
2023/10/14 14:54:07;;;;;;;0.30;0.30;;;;;;;;;;5104361;28;19923;-74
2023/10/14 14:56:34;;;;;;;0.30;0.30;;;;;;;;;;5104027;27;20048;-73
2023/10/14 14:59:02;;;;;;;0.22;0.22;;;;;;;;;;5103724;28;20138;-74
2023/10/14 15:01:31;;;;;;;0.20;0.20;;;;;;;;;;5105388;27;20039;-74
2023/10/14 15:03:58;;;;;;;0.40;0.40;;;;;;;;;;5104753;28;20122;-74
2023/10/14 15:06:24;;;;;;;0.20;0.20;;;;;;;;;;5107099;27;20082;-74
2023/10/14 15:08:51;;;;;;;0.40;0.40;;;;;;;;;;5090144;28;20055;-73